createdAt,value
2022-09-04T00:00:10.831Z,101193.00
2022-09-04T00:03:18.765Z,101190.00
2022-09-04T00:05:55.200Z,101195.00
2022-09-04T00:08:34.133Z,101188.00
2022-09-04T00:11:31.520Z,101187.00
2022-09-04T00:14:15.608Z,101188.00
2022-09-04T00:16:54.832Z,101180.00
2022-09-04T00:19:35.795Z,101190.00
2022-09-04T00:22:25.691Z,101193.00
2022-09-04T00:25:10.109Z,101193.00
2022-09-04T00:27:45.299Z,101189.00
2022-09-04T00:30:24.207Z,101194.00
2022-09-04T00:33:17.745Z,101195.00
2022-09-04T00:35:53.758Z,101174.00
2022-09-04T00:38:26.358Z,101201.00
2022-09-04T00:41:10.343Z,101191.00
2022-09-04T00:43:58.297Z,101192.00
2022-09-04T00:47:09.383Z,101190.00
2022-09-04T00:49:51.439Z,101200.00
2022-09-04T00:53:09.672Z,101193.00
2022-09-04T00:56:17.104Z,101191.00
2022-09-04T00:59:01.455Z,101191.00
2022-09-04T01:01:29.636Z,101192.00
2022-09-04T01:04:09.642Z,101175.00
2022-09-04T01:07:07.371Z,101189.00
2022-09-04T01:09:56.293Z,101197.00
2022-09-04T01:12:43.469Z,101188.00
2022-09-04T01:15:24.449Z,101191.00
2022-09-04T01:18:13.517Z,101190.00
2022-09-04T01:21:44.238Z,101182.00
2022-09-04T01:24:38.329Z,101185.00
2022-09-04T01:27:26.991Z,101187.00
2022-09-04T01:30:21.315Z,101189.00
2022-09-04T01:33:18.481Z,101187.00
2022-09-04T01:36:27.977Z,101192.00
2022-09-04T01:39:00.132Z,101182.00
2022-09-04T01:41:45.597Z,101190.00
2022-09-04T01:44:13.097Z,101184.00
2022-09-04T01:47:15.720Z,101188.00
2022-09-04T01:49:56.040Z,101190.00
2022-09-04T01:52:59.095Z,101191.00
2022-09-04T01:55:44.850Z,101191.00
2022-09-04T01:58:43.913Z,101173.00
2022-09-04T02:01:21.490Z,101186.00
2022-09-04T02:04:00.537Z,101189.00
2022-09-04T02:06:47.395Z,101183.00
2022-09-04T02:10:06.931Z,101188.00
2022-09-04T02:13:04.856Z,101189.00
2022-09-04T02:15:48.207Z,101181.00
2022-09-04T02:18:44.405Z,101176.00
2022-09-04T02:21:28.781Z,101178.00
2022-09-04T02:24:31.086Z,101174.00
2022-09-04T02:27:10.668Z,101173.00
2022-09-04T02:29:51.236Z,101177.00
2022-09-04T02:32:21.046Z,101178.00
2022-09-04T02:35:26.972Z,101177.00
2022-09-04T02:37:59.616Z,101171.00
2022-09-04T02:40:42.680Z,101173.00
2022-09-04T02:43:50.485Z,101184.00
2022-09-04T02:46:52.319Z,101173.00
2022-09-04T02:49:29.755Z,101165.00
2022-09-04T02:52:40.809Z,101173.00
2022-09-04T02:55:34.772Z,101164.00
2022-09-04T02:58:31.556Z,101173.00
2022-09-04T03:01:27.303Z,101173.00
2022-09-04T03:04:50.099Z,101158.00
2022-09-04T03:07:41.219Z,101176.00
2022-09-04T03:10:31.188Z,101180.00
2022-09-04T03:13:26.812Z,101171.00
2022-09-04T03:16:19.021Z,101168.00
2022-09-04T03:19:08.558Z,101163.00
2022-09-04T03:22:21.810Z,101163.00
2022-09-04T03:25:26.412Z,101162.00
2022-09-04T03:27:53.389Z,101159.00
2022-09-04T03:30:20.378Z,101159.00
2022-09-04T03:33:15.512Z,101159.00
2022-09-04T03:36:15.336Z,101164.00
2022-09-04T03:39:29.321Z,101163.00
2022-09-04T03:42:52.148Z,101169.00
2022-09-04T03:46:00.144Z,101174.00
2022-09-04T03:48:50.426Z,101184.00
2022-09-04T03:51:44.388Z,101188.00
2022-09-04T03:54:24.288Z,101186.00
2022-09-04T03:57:15.484Z,101192.00
2022-09-04T04:00:11.192Z,101194.00
2022-09-04T04:03:23.378Z,101189.00
2022-09-04T04:06:42.146Z,101189.00
2022-09-04T04:09:49.984Z,101187.00
2022-09-04T04:12:28.644Z,101199.00
2022-09-04T04:15:14.022Z,101187.00
2022-09-04T04:18:00.165Z,101192.00
2022-09-04T04:20:55.645Z,101202.00
2022-09-04T04:24:03.293Z,101206.00
2022-09-04T04:26:42.814Z,101204.00
2022-09-04T04:29:44.349Z,101214.00
2022-09-04T04:32:52.690Z,101214.00
2022-09-04T04:36:05.790Z,101209.00
2022-09-04T04:38:53.768Z,101216.00
2022-09-04T04:42:06.081Z,101215.00
2022-09-04T04:45:27.348Z,101215.00
2022-09-04T04:48:50.553Z,101222.00
2022-09-04T04:51:26.456Z,101215.00
2022-09-04T04:54:27.120Z,101224.00
2022-09-04T04:57:30.462Z,101227.00
2022-09-04T05:00:40.168Z,101226.00
2022-09-04T05:03:33.362Z,101222.00
2022-09-04T05:06:26.533Z,101228.00
2022-09-04T05:09:11.200Z,101230.00
2022-09-04T05:12:03.259Z,101229.00
2022-09-04T05:15:03.663Z,101238.00
2022-09-04T05:17:52.237Z,101226.00
2022-09-04T05:20:29.763Z,101241.00
2022-09-04T05:23:28.808Z,101240.00
2022-09-04T05:26:26.998Z,101239.00
2022-09-04T05:29:36.826Z,101237.00
2022-09-04T05:32:39.290Z,101239.00
2022-09-04T05:35:47.565Z,101237.00
2022-09-04T05:38:28.647Z,101244.00
2022-09-04T05:41:28.818Z,101242.00
2022-09-04T05:44:26.107Z,101251.00
2022-09-04T05:47:20.538Z,101257.00
2022-09-04T05:50:21.437Z,101256.00
2022-09-04T05:53:15.939Z,101264.00
2022-09-04T05:56:25.413Z,101263.00
2022-09-04T05:59:16.518Z,101265.00
2022-09-04T06:02:07.439Z,101265.00
2022-09-04T06:04:59.150Z,101280.00
2022-09-04T06:07:42.304Z,101272.00
2022-09-04T06:10:21.424Z,101264.00
2022-09-04T06:13:03.396Z,101268.00
2022-09-04T06:16:26.063Z,101278.00
2022-09-04T06:19:14.129Z,101273.00
2022-09-04T06:21:50.110Z,101285.00
2022-09-04T06:25:06.078Z,101274.00
2022-09-04T06:28:07.295Z,101289.00
2022-09-04T06:31:09.452Z,101281.00
2022-09-04T06:34:22.430Z,101289.00
2022-09-04T06:37:30.869Z,101278.00
2022-09-04T06:40:19.318Z,101286.00
2022-09-04T06:42:58.074Z,101289.00
2022-09-04T06:46:05.566Z,101278.00
2022-09-04T06:48:47.352Z,101284.00
2022-09-04T06:52:18.636Z,101288.00
2022-09-04T06:55:00.625Z,101276.00
2022-09-04T06:57:39.319Z,101278.00
2022-09-04T07:00:11.361Z,101285.00
2022-09-04T07:03:16.232Z,101283.00
2022-09-04T07:06:11.226Z,101289.00
2022-09-04T07:09:17.074Z,101289.00
2022-09-04T07:12:11.325Z,101296.00
2022-09-04T07:15:12.432Z,101292.00
2022-09-04T07:18:17.597Z,101291.00
2022-09-04T07:21:27.066Z,101304.00
2022-09-04T07:24:21.737Z,101298.00
2022-09-04T07:27:12.237Z,101310.00
2022-09-04T07:30:03.523Z,101318.00
2022-09-04T07:32:51.297Z,101316.00
2022-09-04T07:36:12.496Z,101322.00
2022-09-04T07:39:12.907Z,101315.00
2022-09-04T07:42:15.774Z,101319.00
2022-09-04T07:44:54.717Z,101317.00
2022-09-04T07:48:06.770Z,101322.00
2022-09-04T07:50:42.113Z,101329.00
2022-09-04T07:53:52.036Z,101336.00
2022-09-04T07:56:49.393Z,101347.00
2022-09-04T07:59:49.876Z,101342.00
2022-09-04T08:02:32.045Z,101345.00
2022-09-04T08:05:32.203Z,101342.00
2022-09-04T08:08:33.678Z,101357.00
2022-09-04T08:11:12.075Z,101358.00
2022-09-04T08:14:19.674Z,101355.00
2022-09-04T08:17:26.386Z,101357.00
2022-09-04T08:20:33.499Z,101368.00
2022-09-04T08:23:23.430Z,101358.00
2022-09-04T08:25:53.204Z,101343.00
2022-09-04T08:29:08.686Z,101344.00
2022-09-04T08:31:55.792Z,101341.00
2022-09-04T08:35:06.109Z,101360.00
2022-09-04T08:37:49.845Z,101355.00
2022-09-04T08:40:34.992Z,101355.00
2022-09-04T08:43:40.152Z,101336.00
2022-09-04T08:46:28.787Z,101355.00
2022-09-04T08:49:11.704Z,101356.00
2022-09-04T08:52:30.614Z,101350.00
2022-09-04T08:55:30.477Z,101360.00
2022-09-04T08:58:34.266Z,101368.00
2022-09-04T09:01:45.940Z,101378.00
2022-09-04T09:04:30.227Z,101372.00
2022-09-04T09:07:35.267Z,101381.00
2022-09-04T09:10:40.247Z,101371.00
2022-09-04T09:13:40.147Z,101376.00
2022-09-04T09:16:18.984Z,101372.00
2022-09-04T09:19:22.757Z,101375.00
2022-09-04T09:21:59.160Z,101374.00
2022-09-04T09:25:22.114Z,101374.00
2022-09-04T09:28:32.873Z,101378.00
2022-09-04T09:31:19.777Z,101365.00
2022-09-04T09:34:46.352Z,101369.00
2022-09-04T09:37:48.117Z,101366.00
2022-09-04T09:40:42.119Z,101360.00
2022-09-04T09:43:41.996Z,101363.00
2022-09-04T09:46:45.313Z,101360.00
2022-09-04T09:50:00.203Z,101369.00
2022-09-04T09:52:50.792Z,101370.00
2022-09-04T09:56:08.394Z,101356.00
2022-09-04T09:58:59.179Z,101365.00
2022-09-04T10:01:25.990Z,101361.00
2022-09-04T10:04:16.915Z,101357.00
2022-09-04T10:07:21.420Z,101350.00
2022-09-04T10:10:07.049Z,101349.00
2022-09-04T10:12:50.214Z,101355.00
2022-09-04T10:28:07.761Z,101339.00
2022-09-04T10:30:53.256Z,101344.00
2022-09-04T10:33:57.106Z,101348.00
2022-09-04T10:36:57.857Z,101333.00
2022-09-04T10:39:56.743Z,101347.00
2022-09-04T10:42:35.614Z,101322.00
2022-09-04T10:45:52.759Z,101347.00
2022-09-04T10:48:37.036Z,101342.00
2022-09-04T10:51:27.833Z,101341.00
2022-09-04T10:54:31.189Z,101363.00
2022-09-04T10:57:59.965Z,101352.00
2022-09-04T11:00:51.330Z,101357.00
2022-09-04T11:03:58.480Z,101370.00
2022-09-04T11:06:49.269Z,101360.00
2022-09-04T11:09:22.187Z,101363.00
2022-09-04T11:12:48.261Z,101357.00
2022-09-04T11:15:29.201Z,101348.00
2022-09-04T11:18:12.726Z,101360.00
2022-09-04T11:21:37.258Z,101361.00
2022-09-04T11:24:55.723Z,101361.00
2022-09-04T11:28:00.480Z,101359.00
2022-09-04T11:30:55.553Z,101357.00
2022-09-04T11:33:53.398Z,101368.00
2022-09-04T11:37:15.397Z,101347.00
2022-09-04T11:40:33.134Z,101352.00
2022-09-04T11:43:42.129Z,101350.00
2022-09-04T11:46:52.624Z,101344.00
2022-09-04T11:49:41.405Z,101352.00
2022-09-04T11:52:37.858Z,101361.00
2022-09-04T11:55:35.715Z,101351.00
2022-09-04T11:58:42.988Z,101351.00
2022-09-04T12:01:39.247Z,101346.00
2022-09-04T12:04:30.537Z,101364.00
2022-09-04T12:07:18.804Z,101357.00
2022-09-04T12:10:19.055Z,101359.00
2022-09-04T12:13:32.385Z,101361.00
2022-09-04T12:16:42.274Z,101366.00
2022-09-04T12:19:50.927Z,101359.00
2022-09-04T12:22:28.785Z,101355.00
2022-09-04T12:25:10.672Z,101358.00
2022-09-04T12:27:57.300Z,101352.00
2022-09-04T12:31:10.364Z,101352.00
2022-09-04T12:34:34.709Z,101357.00
2022-09-04T12:37:23.062Z,101360.00
2022-09-04T12:40:52.518Z,101361.00
2022-09-04T12:44:08.741Z,101351.00
2022-09-04T12:46:50.339Z,101363.00
2022-09-04T12:49:58.771Z,101372.00
2022-09-04T12:53:31.593Z,101364.00
2022-09-04T12:56:28.211Z,101366.00
2022-09-04T12:59:25.391Z,101363.00
2022-09-04T13:02:14.133Z,101365.00
2022-09-04T13:05:17.757Z,101362.00
2022-09-04T13:08:01.431Z,101367.00
2022-09-04T13:10:56.820Z,101371.00
2022-09-04T13:13:29.856Z,101369.00
2022-09-04T13:16:03.919Z,101368.00
2022-09-04T13:19:00.230Z,101374.00
2022-09-04T13:22:00.602Z,101377.00
2022-09-04T13:25:04.414Z,101373.00
2022-09-04T13:28:07.221Z,101375.00
2022-09-04T13:30:48.539Z,101375.00
2022-09-04T13:33:39.825Z,101377.00
2022-09-04T13:36:40.610Z,101368.00
2022-09-04T13:39:37.933Z,101384.00
2022-09-04T13:43:01.437Z,101383.00
2022-09-04T13:45:44.089Z,101379.00
2022-09-04T13:48:32.984Z,101370.00
2022-09-04T13:51:13.618Z,101373.00
2022-09-04T13:54:05.633Z,101370.00
2022-09-04T13:56:50.881Z,101355.00
2022-09-04T13:59:20.677Z,101362.00
2022-09-04T14:01:56.065Z,101351.00
2022-09-04T14:04:43.946Z,101364.00
2022-09-04T14:07:44.839Z,101366.00
2022-09-04T14:10:23.452Z,101362.00
2022-09-04T14:13:12.774Z,101364.00
2022-09-04T14:16:04.287Z,101360.00
2022-09-04T14:19:16.086Z,101347.00
2022-09-04T14:22:10.735Z,101377.00
2022-09-04T14:27:58.862Z,101366.00
2022-09-04T14:30:29.329Z,101369.00
2022-09-04T14:30:30.929Z,101370.00
2022-09-04T14:33:25.290Z,101374.00
2022-09-04T14:36:22.474Z,101373.00
2022-09-04T14:39:40.616Z,101370.00
2022-09-04T14:42:47.566Z,101352.00
2022-09-04T14:45:52.766Z,101360.00
2022-09-04T14:48:22.232Z,101367.00
2022-09-04T14:50:54.491Z,101381.00
2022-09-04T14:53:34.925Z,101388.00
2022-09-04T14:56:07.996Z,101392.00
2022-09-04T14:58:50.482Z,101400.00
2022-09-04T15:01:20.935Z,101400.00
2022-09-04T15:04:10.287Z,101395.00
2022-09-04T15:07:10.682Z,101399.00
2022-09-04T15:09:43.362Z,101395.00
2022-09-04T15:12:28.665Z,101386.00
2022-09-04T15:15:20.947Z,101398.00
2022-09-04T15:18:16.619Z,101404.00
2022-09-04T15:21:09.007Z,101412.00
2022-09-04T15:23:49.801Z,101395.00
2022-09-04T15:26:46.273Z,101409.00
2022-09-04T15:29:38.521Z,101415.00
2022-09-04T15:32:14.163Z,101416.00
2022-09-04T15:34:41.677Z,101415.00
2022-09-04T15:37:25.647Z,101419.00
2022-09-04T15:40:16.239Z,101417.00
2022-09-04T15:43:15.895Z,101422.00
2022-09-04T15:45:51.083Z,101415.00
2022-09-04T15:48:58.783Z,101425.00
2022-09-04T15:52:12.721Z,101430.00
2022-09-04T15:54:43.178Z,101420.00
2022-09-04T15:57:28.070Z,101431.00
2022-09-04T16:00:20.463Z,101429.00
2022-09-04T16:03:24.798Z,101432.00
2022-09-04T16:06:02.895Z,101449.00
2022-09-04T16:08:58.107Z,101436.00
2022-09-04T16:11:37.355Z,101431.00
2022-09-04T16:14:20.345Z,101435.00
2022-09-04T16:17:01.133Z,101440.00
2022-09-04T16:20:10.293Z,101432.00
2022-09-04T16:22:48.248Z,101440.00
2022-09-04T16:25:30.305Z,101441.00
2022-09-04T16:28:05.813Z,101437.00
2022-09-04T16:30:47.580Z,101445.00
2022-09-04T16:33:35.080Z,101438.00
2022-09-04T16:36:28.533Z,101446.00
2022-09-04T16:39:49.751Z,101451.00
2022-09-04T16:42:30.953Z,101443.00
2022-09-04T16:45:05.529Z,101439.00
2022-09-04T16:47:45.615Z,101437.00
2022-09-04T16:50:35.680Z,101445.00
2022-09-04T16:53:28.832Z,101447.00
2022-09-04T16:56:13.940Z,101445.00
2022-09-04T16:58:56.546Z,101453.00
2022-09-04T17:01:38.614Z,101460.00
2022-09-04T17:04:28.633Z,101469.00
2022-09-04T17:07:09.310Z,101473.00
2022-09-04T17:10:02.640Z,101473.00
2022-09-04T17:12:58.305Z,101476.00
2022-09-04T17:16:10.386Z,101483.00
2022-09-04T17:18:44.166Z,101483.00
2022-09-04T17:26:22.647Z,101480.00
2022-09-04T17:28:59.462Z,101467.00
2022-09-04T17:29:11.656Z,101488.00
2022-09-04T17:31:27.529Z,101489.00
2022-09-04T17:40:37.400Z,101500.00
2022-09-04T17:40:57.403Z,101502.00
2022-09-04T17:41:35.802Z,101488.00
2022-09-04T17:44:09.367Z,101504.00
2022-09-04T17:47:27.557Z,101503.00
2022-09-04T17:49:57.200Z,101514.00
2022-09-04T17:52:28.370Z,101520.00
2022-09-04T17:55:11.244Z,101527.00
2022-09-04T17:57:59.253Z,101527.00
2022-09-04T18:00:50.186Z,101530.00
2022-09-04T18:03:33.052Z,101527.00
2022-09-04T18:06:07.231Z,101535.00
2022-09-04T18:08:48.341Z,101544.00
2022-09-04T18:12:00.097Z,101541.00
2022-09-04T18:14:50.115Z,101542.00
2022-09-04T18:18:07.063Z,101549.00
2022-09-04T18:20:47.229Z,101547.00
2022-09-04T18:23:48.774Z,101545.00
2022-09-04T18:26:41.088Z,101551.00
2022-09-04T18:30:38.835Z,101561.00
2022-09-04T18:37:09.373Z,101564.00
2022-09-04T18:37:25.135Z,101564.00
2022-09-04T18:39:37.500Z,101564.00
2022-09-04T18:47:24.934Z,101566.00
2022-09-04T18:50:44.947Z,101555.00
2022-09-04T18:50:53.511Z,101569.00
2022-09-04T18:51:30.533Z,101568.00
2022-09-04T18:54:36.246Z,101561.00
2022-09-04T18:57:24.549Z,101565.00
2022-09-04T19:00:07.937Z,101554.00
2022-09-04T19:03:13.481Z,101576.00
2022-09-04T19:05:46.801Z,101580.00
2022-09-04T19:08:25.677Z,101562.00
2022-09-04T19:11:11.248Z,101583.00
2022-09-04T19:14:15.662Z,101583.00
2022-09-04T19:16:56.696Z,101578.00
2022-09-04T19:19:33.667Z,101579.00
2022-09-04T19:22:12.029Z,101585.00
2022-09-04T19:24:58.808Z,101587.00
2022-09-04T19:27:42.456Z,101587.00
2022-09-04T19:30:18.431Z,101592.00
2022-09-04T19:33:11.503Z,101590.00
2022-09-04T19:35:56.539Z,101591.00
2022-09-04T19:42:16.944Z,101590.00
2022-09-04T19:46:05.993Z,101598.00
2022-09-04T19:46:08.896Z,101593.00
2022-09-04T19:47:50.270Z,101602.00
2022-09-04T19:53:29.836Z,101603.00
2022-09-04T19:53:57.738Z,101590.00
2022-09-04T19:57:12.683Z,101621.00
2022-09-04T19:59:44.911Z,101606.00
2022-09-04T20:02:44.274Z,101615.00
2022-09-04T20:05:37.015Z,101622.00
2022-09-04T20:08:13.648Z,101622.00
2022-09-04T20:11:27.213Z,101623.00
2022-09-04T20:14:14.477Z,101639.00
2022-09-04T20:17:39.503Z,101629.00
2022-09-04T20:20:19.150Z,101638.00
2022-09-04T20:22:53.323Z,101628.00
2022-09-04T20:25:55.859Z,101630.00
2022-09-04T20:28:48.615Z,101626.00
2022-09-04T20:31:28.416Z,101637.00
2022-09-04T20:34:50.729Z,101635.00
2022-09-04T20:37:34.850Z,101628.00
2022-09-04T20:40:11.841Z,101633.00
2022-09-04T20:52:44.079Z,101631.00
2022-09-04T20:52:49.856Z,101639.00
2022-09-04T20:53:08.495Z,101638.00
2022-09-04T20:56:08.059Z,101642.00
2022-09-04T21:03:09.574Z,101641.00
2022-09-04T21:03:11.480Z,101653.00
2022-09-04T21:05:17.476Z,101654.00
2022-09-04T21:07:56.614Z,101655.00
2022-09-04T21:11:00.687Z,101661.00
2022-09-04T21:13:37.496Z,101668.00
2022-09-04T21:16:41.023Z,101670.00
2022-09-04T21:19:51.153Z,101666.00
2022-09-04T21:22:44.049Z,101672.00
2022-09-04T21:25:51.603Z,101673.00
2022-09-04T21:28:46.420Z,101673.00
2022-09-04T21:31:36.393Z,101675.00
2022-09-04T21:34:43.431Z,101678.00
2022-09-04T21:37:40.246Z,101675.00
2022-09-04T21:40:54.074Z,101680.00
2022-09-04T21:43:43.433Z,101680.00
2022-09-04T21:46:35.263Z,101677.00
2022-09-04T21:49:48.138Z,101680.00
2022-09-04T21:52:47.642Z,101680.00
2022-09-04T22:13:04.504Z,101685.00
2022-09-04T22:13:42.964Z,101692.00
2022-09-04T22:14:32.716Z,101695.00
2022-09-04T22:17:05.605Z,101698.00
2022-09-04T22:20:06.664Z,101701.00
2022-09-04T22:22:48.689Z,101706.00
2022-09-04T22:26:08.661Z,101694.00
2022-09-04T22:29:09.130Z,101695.00
2022-09-04T22:32:20.451Z,101697.00
2022-09-04T22:35:21.682Z,101699.00
2022-09-04T22:38:35.290Z,101703.00
2022-09-04T22:41:09.242Z,101700.00
2022-09-04T22:43:45.369Z,101704.00
2022-09-04T22:46:38.663Z,101705.00
2022-09-04T22:49:31.904Z,101693.00
2022-09-04T22:52:29.076Z,101697.00
2022-09-04T22:55:17.624Z,101693.00
2022-09-04T22:58:29.038Z,101696.00
2022-09-04T23:01:21.065Z,101694.00
2022-09-04T23:04:12.404Z,101697.00
2022-09-04T23:11:12.775Z,101697.00
2022-09-04T23:13:43.882Z,101701.00
2022-09-04T23:14:10.946Z,101710.00
2022-09-04T23:17:16.661Z,101703.00
2022-09-04T23:26:23.485Z,101709.00
2022-09-04T23:26:45.850Z,101709.00
2022-09-04T23:26:59.536Z,101704.00
2022-09-04T23:30:12.522Z,101700.00
2022-09-04T23:32:55.250Z,101700.00
2022-09-04T23:36:27.369Z,101713.00
2022-09-04T23:39:43.091Z,101715.00
2022-09-04T23:42:45.987Z,101710.00
2022-09-04T23:45:27.580Z,101713.00
2022-09-04T23:48:31.701Z,101713.00
2022-09-04T23:51:16.635Z,101715.00
2022-09-04T23:54:19.369Z,101716.00
2022-09-04T23:57:21.475Z,101713.00
